sensor_id;sensor_type;location;lat;lon;timestamp;P1;durP1;ratioP1;P2;durP2;ratioP2
75823;SDS011;64457;51.976;9.834;2023-09-07T00:00:16;14.23;;;5.90;;
75823;SDS011;64457;51.976;9.834;2023-09-07T00:02:46;15.30;;;5.90;;
75823;SDS011;64457;51.976;9.834;2023-09-07T00:05:13;14.17;;;6.50;;
75823;SDS011;64457;51.976;9.834;2023-09-07T00:07:41;13.10;;;6.93;;
75823;SDS011;64457;51.976;9.834;2023-09-07T00:10:09;13.17;;;6.17;;
75823;SDS011;64457;51.976;9.834;2023-09-07T00:12:36;11.90;;;6.23;;
75823;SDS011;64457;51.976;9.834;2023-09-07T00:15:05;13.77;;;6.93;;
75823;SDS011;64457;51.976;9.834;2023-09-07T00:17:35;12.70;;;6.60;;
75823;SDS011;64457;51.976;9.834;2023-09-07T00:20:03;14.30;;;6.60;;
75823;SDS011;64457;51.976;9.834;2023-09-07T00:22:36;14.50;;;7.10;;
75823;SDS011;64457;51.976;9.834;2023-09-07T00:25:04;14.80;;;6.83;;
75823;SDS011;64457;51.976;9.834;2023-09-07T00:27:33;11.90;;;6.40;;
75823;SDS011;64457;51.976;9.834;2023-09-07T00:30:00;15.07;;;6.57;;
75823;SDS011;64457;51.976;9.834;2023-09-07T00:32:29;19.60;;;7.37;;
75823;SDS011;64457;51.976;9.834;2023-09-07T00:35:00;25.07;;;7.07;;
75823;SDS011;64457;51.976;9.834;2023-09-07T00:37:29;11.50;;;6.10;;
75823;SDS011;64457;51.976;9.834;2023-09-07T00:39:56;12.67;;;6.63;;
75823;SDS011;64457;51.976;9.834;2023-09-07T00:42:24;16.13;;;6.70;;
75823;SDS011;64457;51.976;9.834;2023-09-07T00:44:52;13.10;;;6.27;;
75823;SDS011;64457;51.976;9.834;2023-09-07T00:47:20;12.20;;;5.83;;
75823;SDS011;64457;51.976;9.834;2023-09-07T00:49:49;12.80;;;6.83;;
75823;SDS011;64457;51.976;9.834;2023-09-07T00:52:18;17.93;;;6.87;;
75823;SDS011;64457;51.976;9.834;2023-09-07T00:54:47;20.63;;;8.10;;
75823;SDS011;64457;51.976;9.834;2023-09-07T00:57:15;18.53;;;7.70;;
75823;SDS011;64457;51.976;9.834;2023-09-07T00:59:42;14.60;;;7.57;;
75823;SDS011;64457;51.976;9.834;2023-09-07T01:02:10;17.73;;;7.90;;
75823;SDS011;64457;51.976;9.834;2023-09-07T01:04:37;13.30;;;7.43;;
75823;SDS011;64457;51.976;9.834;2023-09-07T01:07:09;15.17;;;7.80;;
75823;SDS011;64457;51.976;9.834;2023-09-07T01:09:46;12.97;;;6.87;;
75823;SDS011;64457;51.976;9.834;2023-09-07T01:12:19;16.70;;;7.00;;
75823;SDS011;64457;51.976;9.834;2023-09-07T01:14:46;16.60;;;7.50;;
75823;SDS011;64457;51.976;9.834;2023-09-07T01:17:14;14.00;;;7.40;;
75823;SDS011;64457;51.976;9.834;2023-09-07T01:19:42;12.77;;;7.30;;
75823;SDS011;64457;51.976;9.834;2023-09-07T01:22:16;16.60;;;6.50;;
75823;SDS011;64457;51.976;9.834;2023-09-07T01:24:44;14.80;;;7.47;;
75823;SDS011;64457;51.976;9.834;2023-09-07T01:27:12;12.70;;;7.10;;
75823;SDS011;64457;51.976;9.834;2023-09-07T01:29:40;16.47;;;7.93;;
75823;SDS011;64457;51.976;9.834;2023-09-07T01:32:08;17.17;;;7.83;;
75823;SDS011;64457;51.976;9.834;2023-09-07T01:34:36;19.17;;;7.83;;
75823;SDS011;64457;51.976;9.834;2023-09-07T01:37:04;16.17;;;6.90;;
75823;SDS011;64457;51.976;9.834;2023-09-07T01:39:34;16.70;;;7.30;;
75823;SDS011;64457;51.976;9.834;2023-09-07T01:42:02;18.13;;;7.17;;
75823;SDS011;64457;51.976;9.834;2023-09-07T01:44:31;13.30;;;7.60;;
75823;SDS011;64457;51.976;9.834;2023-09-07T01:47:00;14.80;;;8.13;;
75823;SDS011;64457;51.976;9.834;2023-09-07T01:49:27;23.07;;;8.90;;
75823;SDS011;64457;51.976;9.834;2023-09-07T01:51:55;13.57;;;7.60;;
75823;SDS011;64457;51.976;9.834;2023-09-07T01:54:23;18.20;;;7.30;;
75823;SDS011;64457;51.976;9.834;2023-09-07T01:56:52;12.30;;;7.13;;
75823;SDS011;64457;51.976;9.834;2023-09-07T01:59:19;16.00;;;7.50;;
75823;SDS011;64457;51.976;9.834;2023-09-07T02:01:47;16.73;;;7.63;;
75823;SDS011;64457;51.976;9.834;2023-09-07T02:04:14;17.83;;;7.53;;
75823;SDS011;64457;51.976;9.834;2023-09-07T02:06:41;15.10;;;7.40;;
75823;SDS011;64457;51.976;9.834;2023-09-07T02:09:09;14.57;;;7.27;;
75823;SDS011;64457;51.976;9.834;2023-09-07T02:11:37;15.80;;;8.37;;
75823;SDS011;64457;51.976;9.834;2023-09-07T02:14:06;16.27;;;9.13;;
75823;SDS011;64457;51.976;9.834;2023-09-07T02:16:34;15.27;;;8.23;;
75823;SDS011;64457;51.976;9.834;2023-09-07T02:19:02;20.17;;;8.57;;
75823;SDS011;64457;51.976;9.834;2023-09-07T02:21:32;17.10;;;8.70;;
75823;SDS011;64457;51.976;9.834;2023-09-07T02:23:59;18.70;;;8.50;;
75823;SDS011;64457;51.976;9.834;2023-09-07T02:26:27;15.93;;;8.40;;
75823;SDS011;64457;51.976;9.834;2023-09-07T02:28:54;18.00;;;8.13;;
75823;SDS011;64457;51.976;9.834;2023-09-07T02:31:23;14.33;;;7.30;;
75823;SDS011;64457;51.976;9.834;2023-09-07T02:33:51;14.20;;;7.80;;
75823;SDS011;64457;51.976;9.834;2023-09-07T02:36:18;14.13;;;7.60;;
75823;SDS011;64457;51.976;9.834;2023-09-07T02:38:46;20.17;;;7.67;;
75823;SDS011;64457;51.976;9.834;2023-09-07T02:41:13;14.00;;;8.20;;
75823;SDS011;64457;51.976;9.834;2023-09-07T02:43:41;14.40;;;7.60;;
75823;SDS011;64457;51.976;9.834;2023-09-07T02:46:09;15.27;;;8.20;;
75823;SDS011;64457;51.976;9.834;2023-09-07T02:48:38;17.37;;;8.40;;
75823;SDS011;64457;51.976;9.834;2023-09-07T02:51:05;12.20;;;7.17;;
75823;SDS011;64457;51.976;9.834;2023-09-07T02:53:33;17.00;;;8.40;;
75823;SDS011;64457;51.976;9.834;2023-09-07T02:56:01;16.40;;;8.60;;
75823;SDS011;64457;51.976;9.834;2023-09-07T02:58:29;15.70;;;7.67;;
75823;SDS011;64457;51.976;9.834;2023-09-07T03:00:58;13.93;;;8.13;;
75823;SDS011;64457;51.976;9.834;2023-09-07T03:03:26;21.23;;;8.60;;
75823;SDS011;64457;51.976;9.834;2023-09-07T03:05:55;16.30;;;9.00;;
75823;SDS011;64457;51.976;9.834;2023-09-07T03:08:23;25.30;;;8.90;;
75823;SDS011;64457;51.976;9.834;2023-09-07T03:10:51;15.83;;;8.53;;
75823;SDS011;64457;51.976;9.834;2023-09-07T03:13:20;14.20;;;7.80;;
75823;SDS011;64457;51.976;9.834;2023-09-07T03:15:47;16.73;;;8.20;;
75823;SDS011;64457;51.976;9.834;2023-09-07T03:18:15;12.77;;;7.57;;
75823;SDS011;64457;51.976;9.834;2023-09-07T03:20:42;15.20;;;8.00;;
75823;SDS011;64457;51.976;9.834;2023-09-07T03:23:12;15.40;;;7.77;;
75823;SDS011;64457;51.976;9.834;2023-09-07T03:25:39;16.27;;;7.87;;
75823;SDS011;64457;51.976;9.834;2023-09-07T03:28:07;15.57;;;8.93;;
75823;SDS011;64457;51.976;9.834;2023-09-07T03:30:35;16.23;;;8.57;;
75823;SDS011;64457;51.976;9.834;2023-09-07T03:33:03;15.43;;;8.60;;
75823;SDS011;64457;51.976;9.834;2023-09-07T03:35:31;17.60;;;8.70;;
75823;SDS011;64457;51.976;9.834;2023-09-07T03:37:59;19.57;;;9.03;;
75823;SDS011;64457;51.976;9.834;2023-09-07T03:40:28;15.40;;;8.43;;
75823;SDS011;64457;51.976;9.834;2023-09-07T03:42:56;18.30;;;9.30;;
75823;SDS011;64457;51.976;9.834;2023-09-07T03:45:23;22.10;;;8.80;;
75823;SDS011;64457;51.976;9.834;2023-09-07T03:47:51;18.17;;;9.10;;
75823;SDS011;64457;51.976;9.834;2023-09-07T03:50:18;14.33;;;8.23;;
75823;SDS011;64457;51.976;9.834;2023-09-07T03:52:52;14.73;;;7.47;;
75823;SDS011;64457;51.976;9.834;2023-09-07T03:55:22;14.30;;;8.00;;
75823;SDS011;64457;51.976;9.834;2023-09-07T03:57:51;13.50;;;7.63;;
75823;SDS011;64457;51.976;9.834;2023-09-07T04:00:19;13.90;;;7.80;;
75823;SDS011;64457;51.976;9.834;2023-09-07T04:02:46;17.60;;;8.30;;
75823;SDS011;64457;51.976;9.834;2023-09-07T04:05:14;13.93;;;8.10;;
75823;SDS011;64457;51.976;9.834;2023-09-07T04:07:41;19.53;;;9.17;;
75823;SDS011;64457;51.976;9.834;2023-09-07T04:10:09;19.33;;;8.60;;
75823;SDS011;64457;51.976;9.834;2023-09-07T04:12:36;15.00;;;8.43;;
75823;SDS011;64457;51.976;9.834;2023-09-07T04:15:06;17.40;;;8.30;;
75823;SDS011;64457;51.976;9.834;2023-09-07T04:17:36;15.20;;;8.53;;
75823;SDS011;64457;51.976;9.834;2023-09-07T04:20:07;14.33;;;8.00;;
75823;SDS011;64457;51.976;9.834;2023-09-07T04:22:37;15.40;;;9.07;;
75823;SDS011;64457;51.976;9.834;2023-09-07T04:25:06;16.30;;;8.43;;
75823;SDS011;64457;51.976;9.834;2023-09-07T04:27:34;21.17;;;8.80;;
75823;SDS011;64457;51.976;9.834;2023-09-07T04:30:02;14.63;;;8.80;;
75823;SDS011;64457;51.976;9.834;2023-09-07T04:32:32;20.57;;;10.00;;
75823;SDS011;64457;51.976;9.834;2023-09-07T04:35:03;16.70;;;9.63;;
75823;SDS011;64457;51.976;9.834;2023-09-07T04:37:31;15.33;;;9.20;;
75823;SDS011;64457;51.976;9.834;2023-09-07T04:39:59;24.17;;;9.00;;
75823;SDS011;64457;51.976;9.834;2023-09-07T04:42:27;15.03;;;8.63;;
75823;SDS011;64457;51.976;9.834;2023-09-07T04:44:55;19.33;;;9.87;;
75823;SDS011;64457;51.976;9.834;2023-09-07T04:47:22;17.10;;;9.50;;
75823;SDS011;64457;51.976;9.834;2023-09-07T04:49:51;15.57;;;9.17;;
75823;SDS011;64457;51.976;9.834;2023-09-07T04:52:18;17.40;;;10.10;;
75823;SDS011;64457;51.976;9.834;2023-09-07T04:54:47;16.90;;;9.80;;
75823;SDS011;64457;51.976;9.834;2023-09-07T04:57:15;20.47;;;10.10;;
75823;SDS011;64457;51.976;9.834;2023-09-07T04:59:44;22.37;;;9.70;;
75823;SDS011;64457;51.976;9.834;2023-09-07T05:02:11;21.37;;;11.00;;
75823;SDS011;64457;51.976;9.834;2023-09-07T05:04:38;21.53;;;13.00;;
75823;SDS011;64457;51.976;9.834;2023-09-07T05:07:08;24.30;;;13.67;;
75823;SDS011;64457;51.976;9.834;2023-09-07T05:09:35;23.50;;;13.27;;
75823;SDS011;64457;51.976;9.834;2023-09-07T05:12:03;26.23;;;14.73;;
75823;SDS011;64457;51.976;9.834;2023-09-07T05:14:32;24.57;;;14.57;;
75823;SDS011;64457;51.976;9.834;2023-09-07T05:17:00;23.80;;;14.83;;
75823;SDS011;64457;51.976;9.834;2023-09-07T05:19:28;22.53;;;13.17;;
75823;SDS011;64457;51.976;9.834;2023-09-07T05:21:55;21.73;;;11.73;;
75823;SDS011;64457;51.976;9.834;2023-09-07T05:24:24;19.70;;;11.90;;
75823;SDS011;64457;51.976;9.834;2023-09-07T05:26:52;23.00;;;12.40;;
75823;SDS011;64457;51.976;9.834;2023-09-07T05:29:20;26.03;;;12.40;;
75823;SDS011;64457;51.976;9.834;2023-09-07T05:31:48;21.10;;;12.57;;
75823;SDS011;64457;51.976;9.834;2023-09-07T05:34:15;23.43;;;13.27;;
75823;SDS011;64457;51.976;9.834;2023-09-07T05:36:43;21.80;;;13.70;;
75823;SDS011;64457;51.976;9.834;2023-09-07T05:39:11;26.13;;;14.60;;
75823;SDS011;64457;51.976;9.834;2023-09-07T05:41:40;25.60;;;15.87;;
75823;SDS011;64457;51.976;9.834;2023-09-07T05:44:08;27.07;;;16.70;;
75823;SDS011;64457;51.976;9.834;2023-09-07T05:46:36;27.10;;;15.37;;
75823;SDS011;64457;51.976;9.834;2023-09-07T05:49:03;27.47;;;15.73;;
75823;SDS011;64457;51.976;9.834;2023-09-07T05:51:31;33.53;;;16.50;;
75823;SDS011;64457;51.976;9.834;2023-09-07T05:53:58;26.80;;;15.93;;
75823;SDS011;64457;51.976;9.834;2023-09-07T05:56:26;29.73;;;15.67;;
75823;SDS011;64457;51.976;9.834;2023-09-07T05:58:58;27.43;;;16.90;;
75823;SDS011;64457;51.976;9.834;2023-09-07T06:01:25;30.77;;;19.13;;
75823;SDS011;64457;51.976;9.834;2023-09-07T06:03:54;31.40;;;18.23;;
75823;SDS011;64457;51.976;9.834;2023-09-07T06:06:22;27.70;;;18.13;;
75823;SDS011;64457;51.976;9.834;2023-09-07T06:08:49;36.60;;;22.17;;
75823;SDS011;64457;51.976;9.834;2023-09-07T06:11:17;31.77;;;17.87;;
75823;SDS011;64457;51.976;9.834;2023-09-07T06:13:44;22.83;;;14.40;;
75823;SDS011;64457;51.976;9.834;2023-09-07T06:16:14;27.03;;;14.30;;
75823;SDS011;64457;51.976;9.834;2023-09-07T06:18:42;22.00;;;13.77;;
75823;SDS011;64457;51.976;9.834;2023-09-07T06:21:09;17.40;;;10.03;;
75823;SDS011;64457;51.976;9.834;2023-09-07T06:23:37;17.60;;;9.60;;
75823;SDS011;64457;51.976;9.834;2023-09-07T06:26:05;12.77;;;7.30;;
75823;SDS011;64457;51.976;9.834;2023-09-07T06:28:32;16.13;;;7.80;;
75823;SDS011;64457;51.976;9.834;2023-09-07T06:31:00;15.23;;;7.07;;
75823;SDS011;64457;51.976;9.834;2023-09-07T06:33:29;14.43;;;6.33;;
75823;SDS011;64457;51.976;9.834;2023-09-07T06:35:57;12.10;;;6.37;;
75823;SDS011;64457;51.976;9.834;2023-09-07T06:38:27;14.07;;;6.43;;
75823;SDS011;64457;51.976;9.834;2023-09-07T06:40:55;13.03;;;6.60;;
75823;SDS011;64457;51.976;9.834;2023-09-07T06:43:22;11.40;;;5.63;;
75823;SDS011;64457;51.976;9.834;2023-09-07T06:45:50;10.80;;;5.50;;
75823;SDS011;64457;51.976;9.834;2023-09-07T06:48:18;17.37;;;6.10;;
75823;SDS011;64457;51.976;9.834;2023-09-07T06:50:47;12.20;;;5.80;;
75823;SDS011;64457;51.976;9.834;2023-09-07T06:53:15;10.67;;;5.40;;
75823;SDS011;64457;51.976;9.834;2023-09-07T06:55:42;11.57;;;5.53;;
75823;SDS011;64457;51.976;9.834;2023-09-07T06:58:10;13.13;;;6.27;;
75823;SDS011;64457;51.976;9.834;2023-09-07T07:00:37;13.87;;;5.60;;
75823;SDS011;64457;51.976;9.834;2023-09-07T07:03:05;11.17;;;5.00;;
75823;SDS011;64457;51.976;9.834;2023-09-07T07:05:32;10.20;;;4.60;;
75823;SDS011;64457;51.976;9.834;2023-09-07T07:08:02;9.30;;;4.37;;
75823;SDS011;64457;51.976;9.834;2023-09-07T07:10:30;9.00;;;4.77;;
75823;SDS011;64457;51.976;9.834;2023-09-07T07:12:58;10.90;;;4.57;;
75823;SDS011;64457;51.976;9.834;2023-09-07T07:15:26;10.93;;;4.70;;
75823;SDS011;64457;51.976;9.834;2023-09-07T07:17:54;8.57;;;4.90;;
75823;SDS011;64457;51.976;9.834;2023-09-07T07:20:21;12.87;;;5.17;;
75823;SDS011;64457;51.976;9.834;2023-09-07T07:22:49;9.83;;;4.37;;
75823;SDS011;64457;51.976;9.834;2023-09-07T07:25:20;8.30;;;4.80;;
75823;SDS011;64457;51.976;9.834;2023-09-07T07:27:47;9.87;;;4.80;;
75823;SDS011;64457;51.976;9.834;2023-09-07T07:30:15;20.03;;;4.40;;
75823;SDS011;64457;51.976;9.834;2023-09-07T07:32:44;7.20;;;3.80;;
75823;SDS011;64457;51.976;9.834;2023-09-07T07:35:11;7.83;;;3.40;;
75823;SDS011;64457;51.976;9.834;2023-09-07T07:37:39;6.30;;;3.77;;
75823;SDS011;64457;51.976;9.834;2023-09-07T07:40:07;7.97;;;3.60;;
75823;SDS011;64457;51.976;9.834;2023-09-07T07:42:38;8.23;;;3.70;;
75823;SDS011;64457;51.976;9.834;2023-09-07T07:45:06;7.27;;;3.33;;
75823;SDS011;64457;51.976;9.834;2023-09-07T07:47:35;5.70;;;3.63;;
75823;SDS011;64457;51.976;9.834;2023-09-07T07:50:03;5.90;;;3.60;;
75823;SDS011;64457;51.976;9.834;2023-09-07T07:52:33;6.63;;;3.40;;
75823;SDS011;64457;51.976;9.834;2023-09-07T07:55:01;7.70;;;3.33;;
75823;SDS011;64457;51.976;9.834;2023-09-07T07:57:29;5.40;;;3.00;;
75823;SDS011;64457;51.976;9.834;2023-09-07T07:59:59;4.67;;;2.70;;
75823;SDS011;64457;51.976;9.834;2023-09-07T08:02:29;7.80;;;3.40;;
75823;SDS011;64457;51.976;9.834;2023-09-07T08:04:57;5.43;;;2.90;;
75823;SDS011;64457;51.976;9.834;2023-09-07T08:07:25;6.03;;;2.63;;
75823;SDS011;64457;51.976;9.834;2023-09-07T08:09:53;3.93;;;2.80;;
75823;SDS011;64457;51.976;9.834;2023-09-07T08:12:20;3.93;;;2.47;;
75823;SDS011;64457;51.976;9.834;2023-09-07T08:14:48;3.43;;;2.30;;
75823;SDS011;64457;51.976;9.834;2023-09-07T08:17:17;4.43;;;2.60;;
75823;SDS011;64457;51.976;9.834;2023-09-07T08:19:45;10.37;;;3.00;;
75823;SDS011;64457;51.976;9.834;2023-09-07T08:22:16;5.27;;;3.00;;
75823;SDS011;64457;51.976;9.834;2023-09-07T08:24:44;3.93;;;2.57;;
75823;SDS011;64457;51.976;9.834;2023-09-07T08:27:12;4.20;;;2.20;;
75823;SDS011;64457;51.976;9.834;2023-09-07T08:29:43;4.70;;;2.50;;
75823;SDS011;64457;51.976;9.834;2023-09-07T08:32:18;4.80;;;2.67;;
75823;SDS011;64457;51.976;9.834;2023-09-07T08:34:46;4.30;;;2.20;;
75823;SDS011;64457;51.976;9.834;2023-09-07T08:37:13;3.05;;;2.53;;
75823;SDS011;64457;51.976;9.834;2023-09-07T08:39:41;4.40;;;2.38;;
75823;SDS011;64457;51.976;9.834;2023-09-07T08:42:09;3.67;;;2.42;;
75823;SDS011;64457;51.976;9.834;2023-09-07T08:44:37;3.33;;;2.33;;
75823;SDS011;64457;51.976;9.834;2023-09-07T08:47:11;3.60;;;2.00;;
75823;SDS011;64457;51.976;9.834;2023-09-07T08:49:45;3.33;;;2.20;;
75823;SDS011;64457;51.976;9.834;2023-09-07T08:52:14;3.25;;;2.03;;
75823;SDS011;64457;51.976;9.834;2023-09-07T08:54:43;2.40;;;2.20;;
75823;SDS011;64457;51.976;9.834;2023-09-07T08:57:12;4.25;;;2.10;;
75823;SDS011;64457;51.976;9.834;2023-09-07T08:59:41;2.53;;;2.30;;
75823;SDS011;64457;51.976;9.834;2023-09-07T09:02:09;4.40;;;2.17;;
75823;SDS011;64457;51.976;9.834;2023-09-07T09:04:37;3.45;;;2.00;;
75823;SDS011;64457;51.976;9.834;2023-09-07T09:07:06;2.95;;;2.40;;
75823;SDS011;64457;51.976;9.834;2023-09-07T09:09:34;4.50;;;2.50;;
75823;SDS011;64457;51.976;9.834;2023-09-07T09:12:07;5.00;;;2.70;;
75823;SDS011;64457;51.976;9.834;2023-09-07T09:14:35;3.87;;;2.73;;
75823;SDS011;64457;51.976;9.834;2023-09-07T09:17:03;9.70;;;3.43;;
75823;SDS011;64457;51.976;9.834;2023-09-07T09:19:30;4.17;;;2.80;;
75823;SDS011;64457;51.976;9.834;2023-09-07T09:21:58;5.90;;;3.13;;
75823;SDS011;64457;51.976;9.834;2023-09-07T09:24:31;12.10;;;3.03;;
75823;SDS011;64457;51.976;9.834;2023-09-07T09:27:00;13.80;;;3.80;;
75823;SDS011;64457;51.976;9.834;2023-09-07T09:29:28;5.10;;;3.00;;
75823;SDS011;64457;51.976;9.834;2023-09-07T09:31:55;6.20;;;3.80;;
75823;SDS011;64457;51.976;9.834;2023-09-07T09:34:22;7.70;;;3.77;;
75823;SDS011;64457;51.976;9.834;2023-09-07T09:36:50;6.13;;;3.80;;
75823;SDS011;64457;51.976;9.834;2023-09-07T09:39:22;11.00;;;5.70;;
75823;SDS011;64457;51.976;9.834;2023-09-07T09:41:52;6.83;;;3.83;;
75823;SDS011;64457;51.976;9.834;2023-09-07T09:44:21;6.03;;;3.20;;
75823;SDS011;64457;51.976;9.834;2023-09-07T09:46:52;5.93;;;3.50;;
75823;SDS011;64457;51.976;9.834;2023-09-07T09:49:21;7.13;;;3.73;;
75823;SDS011;64457;51.976;9.834;2023-09-07T09:51:53;6.80;;;3.30;;
75823;SDS011;64457;51.976;9.834;2023-09-07T09:54:22;6.30;;;3.60;;
75823;SDS011;64457;51.976;9.834;2023-09-07T09:56:54;8.70;;;4.10;;
75823;SDS011;64457;51.976;9.834;2023-09-07T09:59:21;6.90;;;3.80;;
75823;SDS011;64457;51.976;9.834;2023-09-07T10:01:49;9.70;;;3.63;;
75823;SDS011;64457;51.976;9.834;2023-09-07T10:04:20;7.00;;;4.07;;
75823;SDS011;64457;51.976;9.834;2023-09-07T10:06:53;9.53;;;4.00;;
75823;SDS011;64457;51.976;9.834;2023-09-07T10:09:22;14.93;;;4.60;;
75823;SDS011;64457;51.976;9.834;2023-09-07T10:11:51;5.90;;;3.33;;
75823;SDS011;64457;51.976;9.834;2023-09-07T10:14:24;7.50;;;3.50;;
75823;SDS011;64457;51.976;9.834;2023-09-07T10:16:53;6.00;;;3.77;;
75823;SDS011;64457;51.976;9.834;2023-09-07T10:19:25;10.93;;;3.90;;
75823;SDS011;64457;51.976;9.834;2023-09-07T10:21:53;6.53;;;3.83;;
75823;SDS011;64457;51.976;9.834;2023-09-07T10:24:23;6.90;;;3.70;;
75823;SDS011;64457;51.976;9.834;2023-09-07T10:27:04;9.00;;;3.60;;
75823;SDS011;64457;51.976;9.834;2023-09-07T10:29:40;10.20;;;4.13;;
75823;SDS011;64457;51.976;9.834;2023-09-07T10:32:11;13.43;;;4.17;;
75823;SDS011;64457;51.976;9.834;2023-09-07T10:34:40;7.70;;;4.00;;
75823;SDS011;64457;51.976;9.834;2023-09-07T10:37:09;8.13;;;3.63;;
75823;SDS011;64457;51.976;9.834;2023-09-07T10:39:38;10.30;;;4.00;;
75823;SDS011;64457;51.976;9.834;2023-09-07T10:42:10;17.77;;;4.17;;
75823;SDS011;64457;51.976;9.834;2023-09-07T10:44:47;11.37;;;4.30;;
75823;SDS011;64457;51.976;9.834;2023-09-07T10:47:15;7.93;;;3.67;;
75823;SDS011;64457;51.976;9.834;2023-09-07T10:49:42;8.47;;;4.30;;
75823;SDS011;64457;51.976;9.834;2023-09-07T10:52:10;7.90;;;3.97;;
75823;SDS011;64457;51.976;9.834;2023-09-07T10:54:38;8.67;;;4.27;;
75823;SDS011;64457;51.976;9.834;2023-09-07T10:57:10;7.77;;;4.30;;
75823;SDS011;64457;51.976;9.834;2023-09-07T10:59:43;8.40;;;4.17;;
75823;SDS011;64457;51.976;9.834;2023-09-07T11:02:11;6.97;;;4.00;;
75823;SDS011;64457;51.976;9.834;2023-09-07T11:04:40;6.90;;;3.80;;
75823;SDS011;64457;51.976;9.834;2023-09-07T11:07:08;7.20;;;3.93;;
75823;SDS011;64457;51.976;9.834;2023-09-07T11:09:39;13.53;;;4.47;;
75823;SDS011;64457;51.976;9.834;2023-09-07T11:12:11;8.13;;;4.10;;
75823;SDS011;64457;51.976;9.834;2023-09-07T11:14:40;11.07;;;4.10;;
75823;SDS011;64457;51.976;9.834;2023-09-07T11:17:08;11.80;;;4.60;;
75823;SDS011;64457;51.976;9.834;2023-09-07T11:19:36;14.03;;;4.10;;
75823;SDS011;64457;51.976;9.834;2023-09-07T11:22:04;8.60;;;4.17;;
75823;SDS011;64457;51.976;9.834;2023-09-07T11:24:32;9.27;;;4.43;;
75823;SDS011;64457;51.976;9.834;2023-09-07T11:27:02;10.07;;;4.47;;
75823;SDS011;64457;51.976;9.834;2023-09-07T11:29:32;7.80;;;4.33;;
75823;SDS011;64457;51.976;9.834;2023-09-07T11:32:05;8.00;;;4.20;;
75823;SDS011;64457;51.976;9.834;2023-09-07T11:34:34;12.87;;;4.37;;
75823;SDS011;64457;51.976;9.834;2023-09-07T11:37:02;8.03;;;4.50;;
75823;SDS011;64457;51.976;9.834;2023-09-07T11:39:30;9.67;;;4.20;;
75823;SDS011;64457;51.976;9.834;2023-09-07T11:41:58;8.07;;;4.27;;
75823;SDS011;64457;51.976;9.834;2023-09-07T11:44:25;11.10;;;4.60;;
75823;SDS011;64457;51.976;9.834;2023-09-07T11:46:54;9.80;;;4.20;;
75823;SDS011;64457;51.976;9.834;2023-09-07T11:49:22;7.17;;;4.53;;
75823;SDS011;64457;51.976;9.834;2023-09-07T11:51:50;7.10;;;4.40;;
75823;SDS011;64457;51.976;9.834;2023-09-07T11:54:18;7.70;;;4.10;;
75823;SDS011;64457;51.976;9.834;2023-09-07T11:56:45;7.77;;;4.53;;
75823;SDS011;64457;51.976;9.834;2023-09-07T11:59:13;8.70;;;4.70;;
75823;SDS011;64457;51.976;9.834;2023-09-07T12:01:42;9.00;;;4.83;;
75823;SDS011;64457;51.976;9.834;2023-09-07T12:04:11;7.63;;;5.00;;
75823;SDS011;64457;51.976;9.834;2023-09-07T12:06:39;7.63;;;4.50;;
75823;SDS011;64457;51.976;9.834;2023-09-07T12:09:06;8.87;;;5.13;;
75823;SDS011;64457;51.976;9.834;2023-09-07T12:11:35;8.10;;;4.80;;
75823;SDS011;64457;51.976;9.834;2023-09-07T12:14:03;9.63;;;5.10;;
75823;SDS011;64457;51.976;9.834;2023-09-07T12:16:31;9.97;;;5.17;;
75823;SDS011;64457;51.976;9.834;2023-09-07T12:18:59;9.80;;;5.00;;
75823;SDS011;64457;51.976;9.834;2023-09-07T12:21:28;13.73;;;4.70;;
75823;SDS011;64457;51.976;9.834;2023-09-07T12:23:56;9.00;;;4.97;;
75823;SDS011;64457;51.976;9.834;2023-09-07T12:26:23;10.80;;;5.20;;
75823;SDS011;64457;51.976;9.834;2023-09-07T12:28:51;10.40;;;5.23;;
75823;SDS011;64457;51.976;9.834;2023-09-07T12:31:18;13.83;;;5.60;;
75823;SDS011;64457;51.976;9.834;2023-09-07T12:33:46;8.80;;;5.20;;
75823;SDS011;64457;51.976;9.834;2023-09-07T12:36:13;16.20;;;4.70;;
75823;SDS011;64457;51.976;9.834;2023-09-07T12:38:43;7.70;;;4.63;;
75823;SDS011;64457;51.976;9.834;2023-09-07T12:41:11;8.20;;;4.60;;
75823;SDS011;64457;51.976;9.834;2023-09-07T12:43:38;8.57;;;4.87;;
75823;SDS011;64457;51.976;9.834;2023-09-07T12:46:06;9.23;;;4.87;;
75823;SDS011;64457;51.976;9.834;2023-09-07T12:48:34;10.47;;;4.90;;
75823;SDS011;64457;51.976;9.834;2023-09-07T12:51:01;8.40;;;4.63;;
75823;SDS011;64457;51.976;9.834;2023-09-07T12:53:29;10.03;;;5.00;;
75823;SDS011;64457;51.976;9.834;2023-09-07T12:55:58;13.70;;;4.50;;
75823;SDS011;64457;51.976;9.834;2023-09-07T12:58:28;7.50;;;4.60;;
75823;SDS011;64457;51.976;9.834;2023-09-07T13:00:55;7.50;;;4.47;;
75823;SDS011;64457;51.976;9.834;2023-09-07T13:03:23;12.23;;;5.53;;
75823;SDS011;64457;51.976;9.834;2023-09-07T13:05:52;8.40;;;4.50;;
75823;SDS011;64457;51.976;9.834;2023-09-07T13:08:19;7.50;;;4.27;;
75823;SDS011;64457;51.976;9.834;2023-09-07T13:10:47;10.33;;;4.70;;
75823;SDS011;64457;51.976;9.834;2023-09-07T13:13:16;11.83;;;4.83;;
75823;SDS011;64457;51.976;9.834;2023-09-07T13:15:43;8.93;;;4.80;;
75823;SDS011;64457;51.976;9.834;2023-09-07T13:18:11;7.10;;;4.30;;
75823;SDS011;64457;51.976;9.834;2023-09-07T13:20:39;12.07;;;5.23;;
75823;SDS011;64457;51.976;9.834;2023-09-07T13:23:07;9.67;;;4.50;;
75823;SDS011;64457;51.976;9.834;2023-09-07T13:25:35;8.27;;;4.30;;
75823;SDS011;64457;51.976;9.834;2023-09-07T13:28:02;12.03;;;4.93;;
75823;SDS011;64457;51.976;9.834;2023-09-07T13:30:32;7.47;;;4.67;;
75823;SDS011;64457;51.976;9.834;2023-09-07T13:33:00;16.67;;;4.97;;
75823;SDS011;64457;51.976;9.834;2023-09-07T13:35:27;7.87;;;4.20;;
75823;SDS011;64457;51.976;9.834;2023-09-07T13:37:55;11.50;;;4.80;;
75823;SDS011;64457;51.976;9.834;2023-09-07T13:40:22;13.03;;;5.13;;
75823;SDS011;64457;51.976;9.834;2023-09-07T13:42:54;8.23;;;4.50;;
75823;SDS011;64457;51.976;9.834;2023-09-07T13:45:22;8.83;;;4.23;;
75823;SDS011;64457;51.976;9.834;2023-09-07T13:47:52;8.73;;;4.17;;
75823;SDS011;64457;51.976;9.834;2023-09-07T13:50:19;9.37;;;4.27;;
75823;SDS011;64457;51.976;9.834;2023-09-07T13:52:47;8.70;;;4.47;;
75823;SDS011;64457;51.976;9.834;2023-09-07T13:55:15;14.93;;;4.40;;
75823;SDS011;64457;51.976;9.834;2023-09-07T13:57:42;9.70;;;4.20;;
75823;SDS011;64457;51.976;9.834;2023-09-07T14:00:10;6.90;;;4.47;;
75823;SDS011;64457;51.976;9.834;2023-09-07T14:02:39;9.40;;;4.00;;
75823;SDS011;64457;51.976;9.834;2023-09-07T14:05:08;10.53;;;4.37;;
75823;SDS011;64457;51.976;9.834;2023-09-07T14:07:36;7.33;;;3.93;;
75823;SDS011;64457;51.976;9.834;2023-09-07T14:10:04;11.13;;;4.60;;
75823;SDS011;64457;51.976;9.834;2023-09-07T14:12:33;8.70;;;3.93;;
75823;SDS011;64457;51.976;9.834;2023-09-07T14:15:01;8.10;;;3.67;;
75823;SDS011;64457;51.976;9.834;2023-09-07T14:17:28;9.13;;;4.73;;
75823;SDS011;64457;51.976;9.834;2023-09-07T14:19:56;8.80;;;4.10;;
75823;SDS011;64457;51.976;9.834;2023-09-07T14:22:25;6.83;;;4.17;;
75823;SDS011;64457;51.976;9.834;2023-09-07T14:24:52;13.20;;;4.10;;
75823;SDS011;64457;51.976;9.834;2023-09-07T14:27:23;12.57;;;3.90;;
75823;SDS011;64457;51.976;9.834;2023-09-07T14:29:52;7.53;;;4.03;;
75823;SDS011;64457;51.976;9.834;2023-09-07T14:32:20;6.87;;;4.07;;
75823;SDS011;64457;51.976;9.834;2023-09-07T14:34:47;10.90;;;4.40;;
75823;SDS011;64457;51.976;9.834;2023-09-07T14:37:15;13.03;;;4.10;;
75823;SDS011;64457;51.976;9.834;2023-09-07T14:39:44;9.03;;;4.00;;
75823;SDS011;64457;51.976;9.834;2023-09-07T14:42:14;7.67;;;4.23;;
75823;SDS011;64457;51.976;9.834;2023-09-07T14:44:44;10.13;;;4.37;;